createdAt,value
2019-05-19T00:00:37.928Z,112.17
2019-05-19T00:03:05.971Z,113.60
2019-05-19T00:05:33.973Z,115.63
2019-05-19T00:08:01.954Z,111.73
2019-05-19T00:10:30.009Z,115.80
2019-05-19T00:12:58.072Z,118.47
2019-05-19T00:15:26.136Z,114.53
2019-05-19T00:17:54.113Z,117.20
2019-05-19T00:20:22.076Z,114.70
2019-05-19T00:22:50.048Z,113.57
2019-05-19T00:25:18.079Z,111.53
2019-05-19T00:27:45.973Z,114.03
2019-05-19T00:30:14.165Z,114.70
2019-05-19T00:32:42.245Z,113.93
2019-05-19T00:35:10.194Z,115.97
2019-05-19T00:37:38.208Z,117.80
2019-05-19T00:40:06.242Z,123.80
2019-05-19T00:42:34.232Z,122.90
2019-05-19T00:45:02.340Z,112.97
2019-05-19T00:47:30.263Z,117.47
2019-05-19T00:49:58.207Z,114.63
2019-05-19T00:52:26.178Z,115.07
2019-05-19T00:54:54.163Z,114.40
2019-05-19T00:57:22.337Z,111.23
2019-05-19T00:59:50.417Z,110.23
2019-05-19T01:02:18.481Z,119.87
2019-05-19T01:04:46.528Z,114.07
2019-05-19T01:07:14.497Z,113.10
2019-05-19T01:09:42.532Z,114.90
2019-05-19T01:12:10.432Z,109.43
2019-05-19T01:14:38.414Z,110.07
2019-05-19T01:17:06.392Z,112.20
2019-05-19T01:19:34.362Z,116.30
2019-05-19T01:22:02.375Z,116.67
2019-05-19T01:24:30.339Z,111.93
2019-05-19T01:26:58.401Z,115.67
2019-05-19T01:29:26.340Z,120.20
2019-05-19T01:31:54.328Z,114.10
2019-05-19T01:34:22.277Z,116.27
2019-05-19T01:36:50.231Z,118.83
2019-05-19T01:39:18.200Z,115.77
2019-05-19T01:41:46.197Z,120.93
2019-05-19T01:44:14.167Z,114.20
2019-05-19T01:46:42.111Z,116.83
2019-05-19T01:49:10.093Z,118.13
2019-05-19T01:51:38.073Z,115.90
2019-05-19T01:54:06.016Z,111.97
2019-05-19T01:56:34.022Z,121.90
2019-05-19T01:59:02.081Z,120.00
2019-05-19T02:01:30.126Z,118.30
2019-05-19T02:03:58.097Z,110.97
2019-05-19T02:06:26.100Z,115.07
2019-05-19T02:08:54.044Z,111.20
2019-05-19T02:11:22.047Z,118.37
2019-05-19T02:13:50.089Z,113.03
2019-05-19T02:16:18.090Z,114.93
2019-05-19T02:18:46.138Z,109.00
2019-05-19T02:21:14.116Z,112.10
2019-05-19T02:23:42.094Z,113.80
2019-05-19T02:26:10.081Z,118.40
2019-05-19T02:28:38.111Z,111.40
2019-05-19T02:31:06.108Z,114.93
2019-05-19T02:33:35.781Z,120.33
2019-05-19T02:36:03.774Z,114.63
2019-05-19T02:38:31.734Z,111.93
2019-05-19T02:41:00.590Z,117.47
2019-05-19T02:43:28.584Z,114.27
2019-05-19T02:45:59.084Z,118.67
2019-05-19T02:48:28.418Z,113.57
2019-05-19T02:50:57.943Z,115.47
2019-05-19T02:53:25.893Z,116.87
2019-05-19T02:55:54.950Z,117.50
2019-05-19T02:58:23.172Z,114.83
2019-05-19T03:00:51.126Z,113.27
2019-05-19T03:03:19.082Z,114.77
2019-05-19T03:05:47.125Z,112.20
2019-05-19T03:08:15.022Z,112.63
2019-05-19T03:10:43.021Z,117.30
2019-05-19T03:13:11.094Z,112.10
2019-05-19T03:15:39.164Z,109.83
2019-05-19T03:18:07.206Z,112.93
2019-05-19T03:20:35.192Z,113.43
2019-05-19T03:23:03.187Z,112.33
2019-05-19T03:25:31.258Z,111.93
2019-05-19T03:27:59.290Z,109.30
2019-05-19T03:30:34.262Z,114.70
2019-05-19T03:33:03.358Z,114.87
2019-05-19T03:35:31.412Z,113.30
2019-05-19T03:37:59.481Z,114.90
2019-05-19T03:40:27.443Z,127.70
2019-05-19T03:42:55.511Z,116.00
2019-05-19T03:45:23.488Z,116.20
2019-05-19T03:47:51.424Z,110.90
2019-05-19T03:50:19.390Z,116.93
2019-05-19T03:52:47.375Z,116.33
2019-05-19T03:55:15.372Z,115.73
2019-05-19T03:57:43.476Z,110.50
2019-05-19T04:00:11.503Z,108.87
2019-05-19T04:02:39.485Z,111.33
2019-05-19T04:05:07.887Z,105.17
2019-05-19T04:07:35.930Z,110.70
2019-05-19T04:10:05.403Z,105.07
2019-05-19T04:12:33.383Z,104.47
2019-05-19T04:15:01.363Z,105.43
2019-05-19T04:17:29.424Z,102.30
2019-05-19T04:19:57.409Z,101.27
2019-05-19T04:22:25.361Z,98.20
2019-05-19T04:24:53.384Z,100.20
2019-05-19T04:27:21.333Z,101.50
2019-05-19T04:29:49.372Z,103.90
2019-05-19T04:32:17.334Z,103.77
2019-05-19T04:34:45.338Z,105.87
2019-05-19T04:37:13.398Z,99.07
2019-05-19T04:39:41.351Z,101.37
2019-05-19T04:42:09.333Z,99.97
2019-05-19T04:44:37.419Z,99.17
2019-05-19T04:47:05.470Z,103.07
2019-05-19T04:49:33.541Z,103.97
2019-05-19T04:52:06.681Z,100.97
2019-05-19T04:54:31.320Z,103.27
2019-05-19T04:56:59.383Z,105.40
2019-05-19T04:59:27.380Z,102.50
2019-05-19T05:01:55.461Z,100.87
2019-05-19T05:04:28.781Z,109.43
2019-05-19T05:06:53.201Z,105.00
2019-05-19T05:09:21.218Z,104.70
2019-05-19T05:11:49.261Z,106.40
2019-05-19T05:14:17.228Z,107.07
2019-05-19T05:16:45.202Z,105.63
2019-05-19T05:19:13.257Z,109.50
2019-05-19T05:21:41.234Z,104.37
2019-05-19T05:24:09.228Z,98.57
2019-05-19T05:26:37.191Z,104.50
2019-05-19T05:29:05.176Z,101.37
2019-05-19T05:31:33.094Z,100.97
2019-05-19T05:34:01.108Z,104.23
2019-05-19T05:36:29.136Z,101.07
2019-05-19T05:38:57.109Z,100.47
2019-05-19T05:41:25.104Z,103.63
2019-05-19T05:43:53.048Z,106.30
2019-05-19T05:46:21.052Z,105.40
2019-05-19T05:48:49.021Z,104.10
2019-05-19T05:51:16.998Z,106.87
2019-05-19T05:53:45.066Z,103.03
2019-05-19T05:56:13.009Z,102.03
2019-05-19T05:58:40.986Z,103.90
2019-05-19T06:01:09.040Z,105.27
2019-05-19T06:03:37.038Z,99.97
2019-05-19T06:06:05.194Z,107.93
2019-05-19T06:08:33.275Z,103.90
2019-05-19T06:11:01.240Z,103.53
2019-05-19T06:13:29.293Z,105.77
2019-05-19T06:15:57.277Z,104.93
2019-05-19T06:18:25.224Z,99.97
2019-05-19T06:20:53.236Z,102.50
2019-05-19T06:23:21.393Z,100.50
2019-05-19T06:25:49.437Z,95.93
2019-05-19T06:28:17.409Z,99.50
2019-05-19T06:30:45.388Z,99.10
2019-05-19T06:33:13.360Z,98.87
2019-05-19T06:35:41.348Z,101.63
2019-05-19T06:38:09.495Z,100.23
2019-05-19T06:40:37.501Z,101.10
2019-05-19T06:43:05.583Z,103.90
2019-05-19T06:45:33.555Z,99.67
2019-05-19T06:48:01.524Z,99.17
2019-05-19T06:50:29.445Z,97.80
2019-05-19T06:53:12.828Z,102.90
2019-05-19T06:55:27.194Z,98.27
2019-05-19T06:57:55.190Z,102.07
2019-05-19T07:00:23.316Z,103.80
2019-05-19T07:02:51.247Z,101.80
2019-05-19T07:05:19.375Z,100.40
2019-05-19T07:07:47.379Z,102.40
2019-05-19T07:10:15.454Z,101.23
2019-05-19T07:12:43.550Z,103.40
2019-05-19T07:15:11.946Z,103.77
2019-05-19T07:17:39.871Z,100.57
2019-05-19T07:20:07.972Z,100.97
2019-05-19T07:22:37.822Z,101.90
2019-05-19T07:25:05.966Z,106.80
2019-05-19T07:27:34.063Z,101.67
2019-05-19T07:30:02.079Z,104.80
2019-05-19T07:32:30.169Z,99.53
2019-05-19T07:34:58.228Z,99.20
2019-05-19T07:37:26.282Z,103.30
2019-05-19T07:39:54.286Z,100.97
2019-05-19T07:42:22.441Z,103.00
2019-05-19T07:44:50.635Z,99.47
2019-05-19T07:47:18.671Z,97.07
2019-05-19T07:49:46.719Z,99.10
2019-05-19T07:52:14.769Z,95.50
2019-05-19T07:54:42.836Z,94.03
2019-05-19T07:57:10.885Z,100.03
2019-05-19T07:59:38.854Z,96.53
2019-05-19T08:02:06.927Z,95.90
2019-05-19T08:04:35.061Z,97.20
2019-05-19T08:07:03.052Z,97.00
2019-05-19T08:09:31.141Z,95.23
2019-05-19T08:11:59.087Z,98.10
2019-05-19T08:14:27.395Z,98.30
2019-05-19T08:16:55.484Z,97.47
2019-05-19T08:19:23.395Z,98.03
2019-05-19T08:21:51.508Z,96.87
2019-05-19T08:24:19.453Z,94.30
2019-05-19T08:26:47.652Z,93.50
2019-05-19T08:29:15.923Z,98.50
2019-05-19T08:31:43.953Z,95.27
2019-05-19T08:34:11.965Z,95.27
2019-05-19T08:36:40.059Z,94.07
2019-05-19T08:39:08.043Z,95.57
2019-05-19T08:41:36.081Z,93.13
2019-05-19T08:44:04.347Z,95.93
2019-05-19T08:46:32.895Z,96.60
2019-05-19T08:49:00.898Z,97.70
2019-05-19T08:51:28.884Z,94.37
2019-05-19T08:53:57.144Z,97.33
2019-05-19T08:56:25.203Z,95.47
2019-05-19T08:58:53.305Z,97.60
2019-05-19T09:01:21.373Z,96.67
2019-05-19T09:03:49.406Z,93.60
2019-05-19T09:06:17.566Z,98.57
2019-05-19T09:08:45.607Z,95.90
2019-05-19T09:11:13.547Z,99.40
2019-05-19T09:13:41.739Z,101.20
2019-05-19T09:16:09.708Z,95.83
2019-05-19T09:18:38.012Z,98.77
2019-05-19T09:21:06.086Z,96.80
2019-05-19T09:23:34.101Z,98.40
2019-05-19T09:26:02.268Z,94.00
2019-05-19T09:28:30.390Z,94.60
2019-05-19T09:30:58.426Z,92.37
2019-05-19T09:33:26.485Z,94.00
2019-05-19T09:35:54.593Z,88.90
2019-05-19T09:38:22.637Z,92.33
2019-05-19T09:40:50.704Z,89.13
2019-05-19T09:43:18.798Z,90.17
2019-05-19T09:45:46.836Z,90.27
2019-05-19T09:48:15.125Z,86.43
2019-05-19T09:50:43.502Z,87.47
2019-05-19T09:53:11.527Z,84.87
2019-05-19T09:55:39.643Z,84.90
2019-05-19T09:58:07.768Z,86.40
2019-05-19T10:00:35.954Z,89.00
2019-05-19T10:03:04.273Z,83.60
2019-05-19T10:05:32.331Z,83.33
2019-05-19T10:08:00.324Z,83.90
2019-05-19T10:11:01.781Z,86.67
2019-05-19T10:13:29.878Z,86.10
2019-05-19T10:15:57.808Z,89.00
2019-05-19T10:18:25.854Z,84.40
2019-05-19T10:20:53.883Z,85.00
2019-05-19T10:23:21.919Z,81.90
2019-05-19T10:25:50.027Z,84.60
2019-05-19T10:28:18.105Z,85.27
2019-05-19T10:30:46.280Z,85.60
2019-05-19T10:33:14.342Z,83.20
2019-05-19T10:35:42.411Z,84.27
2019-05-19T10:38:10.498Z,83.43
2019-05-19T10:40:38.538Z,85.37
2019-05-19T10:43:06.666Z,85.57
2019-05-19T10:45:34.764Z,86.63
2019-05-19T10:48:02.884Z,82.40
2019-05-19T10:50:30.817Z,83.37
2019-05-19T10:52:58.901Z,81.57
2019-05-19T10:55:36.223Z,82.37
2019-05-19T10:57:56.541Z,84.03
2019-05-19T11:00:25.035Z,81.70
2019-05-19T11:02:53.089Z,83.80
2019-05-19T11:05:21.085Z,82.97
2019-05-19T11:07:49.133Z,87.27
2019-05-19T11:10:18.435Z,84.80
2019-05-19T11:12:47.042Z,86.30
2019-05-19T11:15:16.530Z,85.57
2019-05-19T11:17:46.234Z,88.03
2019-05-19T11:20:15.513Z,83.67
2019-05-19T11:22:44.268Z,82.10
2019-05-19T11:25:14.280Z,83.30
2019-05-19T11:27:44.696Z,83.07
2019-05-19T11:30:13.814Z,84.50
2019-05-19T11:32:42.506Z,85.03
2019-05-19T11:35:11.362Z,82.50
2019-05-19T11:37:39.421Z,84.67
2019-05-19T11:40:07.354Z,83.17
2019-05-19T11:42:35.404Z,82.37
2019-05-19T11:45:03.352Z,86.13
2019-05-19T11:47:31.366Z,81.90
2019-05-19T11:49:59.367Z,85.87
2019-05-19T11:52:27.437Z,81.87
2019-05-19T11:54:55.414Z,82.07
2019-05-19T11:57:23.349Z,80.77
2019-05-19T11:59:51.362Z,82.53
2019-05-19T12:02:19.395Z,82.07
2019-05-19T12:04:47.593Z,82.23
2019-05-19T12:07:15.665Z,82.60
2019-05-19T12:09:43.701Z,81.47
2019-05-19T12:12:11.594Z,81.80
2019-05-19T12:14:39.995Z,80.47
2019-05-19T12:17:08.190Z,81.83
2019-05-19T12:19:36.325Z,80.67
2019-05-19T12:22:04.371Z,80.50
2019-05-19T12:24:32.353Z,83.70
2019-05-19T12:27:00.327Z,82.37
2019-05-19T12:29:28.370Z,81.63
2019-05-19T12:31:56.358Z,79.37
2019-05-19T12:34:24.319Z,78.77
2019-05-19T12:36:52.332Z,80.73
2019-05-19T12:39:20.378Z,84.57
2019-05-19T12:41:48.460Z,81.47
2019-05-19T12:44:16.524Z,81.70
2019-05-19T12:46:44.509Z,87.07
2019-05-19T12:49:12.456Z,83.30
2019-05-19T12:51:40.372Z,86.23
2019-05-19T12:54:09.230Z,86.33
2019-05-19T12:56:40.087Z,84.77
2019-05-19T12:59:06.932Z,87.43
2019-05-19T13:01:35.070Z,87.73
2019-05-19T13:04:03.052Z,86.73
2019-05-19T13:06:31.109Z,89.87
2019-05-19T13:08:59.072Z,87.87
2019-05-19T13:11:27.056Z,89.10
2019-05-19T13:13:55.097Z,89.30
2019-05-19T13:16:23.072Z,92.40
2019-05-19T13:18:51.052Z,88.50
2019-05-19T13:21:19.061Z,88.40
2019-05-19T13:23:47.037Z,87.83
2019-05-19T13:26:15.077Z,89.03
2019-05-19T13:28:43.172Z,85.67
2019-05-19T13:31:11.160Z,93.00
2019-05-19T13:33:39.200Z,84.47
2019-05-19T13:36:07.293Z,83.50
2019-05-19T13:38:35.337Z,86.30
2019-05-19T13:41:03.591Z,85.60
2019-05-19T13:43:31.611Z,80.03
2019-05-19T13:45:59.649Z,88.30
2019-05-19T13:48:27.710Z,81.90
2019-05-19T13:50:55.662Z,82.97
2019-05-19T13:53:23.992Z,90.70
2019-05-19T13:55:51.913Z,89.67
2019-05-19T13:58:19.929Z,90.77
2019-05-19T14:00:47.872Z,85.80
2019-05-19T14:03:15.955Z,86.07
2019-05-19T14:05:44.077Z,83.47
2019-05-19T14:08:12.114Z,84.13
2019-05-19T14:10:40.176Z,84.57
2019-05-19T14:13:08.240Z,81.83
2019-05-19T14:15:36.281Z,82.60
2019-05-19T14:18:04.591Z,97.53
2019-05-19T14:20:32.799Z,82.57
2019-05-19T14:23:00.706Z,88.00
2019-05-19T14:25:28.664Z,85.37
2019-05-19T14:27:56.801Z,78.57
2019-05-19T14:30:25.834Z,82.27
2019-05-19T14:32:54.071Z,80.50
2019-05-19T14:35:22.381Z,81.67
2019-05-19T14:37:50.379Z,81.50
2019-05-19T14:40:18.780Z,82.07
2019-05-19T14:42:53.697Z,80.20
2019-05-19T14:45:21.673Z,79.17
2019-05-19T14:47:49.725Z,79.50
2019-05-19T14:50:17.846Z,83.47
2019-05-19T14:52:45.849Z,83.87
2019-05-19T14:55:13.805Z,88.67
2019-05-19T14:57:45.338Z,82.77
2019-05-19T15:00:11.840Z,81.27
2019-05-19T15:02:39.853Z,83.77
2019-05-19T15:05:07.880Z,114.47
2019-05-19T15:07:35.922Z,87.80
2019-05-19T15:10:04.020Z,88.83
2019-05-19T15:12:32.084Z,83.77
2019-05-19T15:15:00.057Z,83.70
2019-05-19T15:17:28.136Z,85.30
2019-05-19T15:19:56.166Z,83.57
2019-05-19T15:22:24.184Z,83.97
2019-05-19T15:24:52.228Z,84.67
2019-05-19T15:27:20.223Z,87.53
2019-05-19T15:29:48.340Z,85.07
2019-05-19T15:32:16.556Z,83.77
2019-05-19T15:34:44.624Z,85.77
2019-05-19T15:37:12.601Z,85.00
2019-05-19T15:39:40.545Z,84.80
2019-05-19T15:42:08.513Z,86.73
2019-05-19T15:44:36.507Z,86.97
2019-05-19T15:47:04.553Z,86.50
2019-05-19T15:49:32.581Z,89.07
2019-05-19T15:52:04.178Z,85.90
2019-05-19T15:54:30.335Z,93.07
2019-05-19T15:56:58.711Z,85.70
2019-05-19T15:59:26.676Z,86.10
2019-05-19T16:01:54.704Z,88.37
2019-05-19T16:04:22.693Z,89.67
2019-05-19T16:06:50.765Z,89.03
2019-05-19T16:09:18.873Z,86.93
2019-05-19T16:11:46.950Z,86.90
2019-05-19T16:14:14.923Z,87.27
2019-05-19T16:16:42.943Z,87.47
2019-05-19T16:19:10.974Z,89.50
2019-05-19T16:21:38.998Z,84.63
2019-05-19T16:24:07.095Z,89.67
2019-05-19T16:26:35.037Z,93.10
2019-05-19T16:29:03.119Z,92.70
2019-05-19T16:31:31.116Z,90.37
2019-05-19T16:33:59.174Z,89.27
2019-05-19T16:36:27.112Z,87.43
2019-05-19T16:38:55.101Z,84.23
2019-05-19T16:41:23.207Z,88.43
2019-05-19T16:43:51.353Z,85.57
2019-05-19T16:46:19.398Z,97.20
2019-05-19T16:48:47.401Z,87.00
2019-05-19T16:51:15.340Z,88.57
2019-05-19T16:53:45.037Z,87.10
2019-05-19T16:56:13.015Z,87.53
2019-05-19T16:58:45.326Z,82.73
2019-05-19T17:01:10.980Z,88.33
2019-05-19T17:03:38.905Z,84.50
2019-05-19T17:06:06.924Z,84.30
2019-05-19T17:08:34.948Z,82.87
2019-05-19T17:11:16.356Z,84.57
2019-05-19T17:13:32.634Z,88.70
2019-05-19T17:16:00.768Z,83.20
2019-05-19T17:18:28.854Z,86.47
2019-05-19T17:20:56.818Z,86.87
2019-05-19T17:23:24.854Z,86.30
2019-05-19T17:25:52.941Z,86.17
2019-05-19T17:28:21.427Z,82.57
2019-05-19T17:30:49.510Z,84.30
2019-05-19T17:33:17.518Z,85.10
2019-05-19T17:35:45.562Z,83.80
2019-05-19T17:38:13.639Z,81.23
2019-05-19T17:40:41.840Z,81.33
2019-05-19T17:43:09.866Z,82.87
2019-05-19T17:45:37.970Z,83.37
2019-05-19T17:48:10.152Z,85.00
2019-05-19T17:50:35.962Z,84.97
2019-05-19T17:53:04.490Z,89.80
2019-05-19T17:55:33.604Z,84.20
2019-05-19T17:58:02.300Z,85.07
2019-05-19T18:00:34.928Z,82.53
2019-05-19T18:03:02.933Z,81.90
2019-05-19T18:05:30.953Z,85.43
2019-05-19T18:07:59.001Z,83.20
2019-05-19T18:10:27.439Z,86.93
2019-05-19T18:12:55.597Z,87.40
2019-05-19T18:15:23.632Z,83.50
2019-05-19T18:17:51.698Z,87.40
2019-05-19T18:20:23.777Z,84.47
2019-05-19T18:22:49.903Z,85.07
2019-05-19T18:25:17.933Z,83.10
2019-05-19T18:27:45.914Z,83.60
2019-05-19T18:30:14.757Z,83.33
2019-05-19T18:32:42.726Z,82.00
2019-05-19T18:35:10.733Z,96.30
2019-05-19T18:37:38.702Z,102.77
2019-05-19T18:40:07.142Z,103.43
2019-05-19T18:42:35.489Z,95.13
2019-05-19T18:45:03.574Z,92.10
2019-05-19T18:47:31.475Z,86.87
2019-05-19T18:49:59.480Z,84.30
2019-05-19T18:52:27.429Z,88.30
2019-05-19T18:54:55.390Z,87.07
2019-05-19T18:57:23.447Z,86.87
2019-05-19T18:59:51.457Z,85.83
2019-05-19T19:02:19.508Z,83.77
2019-05-19T19:04:47.512Z,85.17
2019-05-19T19:07:15.449Z,90.57
2019-05-19T19:09:43.435Z,86.03
2019-05-19T19:12:11.587Z,86.60
2019-05-19T19:14:39.582Z,92.40
2019-05-19T19:17:07.559Z,87.77
2019-05-19T19:19:35.520Z,83.20
2019-05-19T19:22:03.654Z,85.20
2019-05-19T19:24:31.666Z,83.77
2019-05-19T19:26:59.622Z,87.00
2019-05-19T19:29:27.610Z,85.30
2019-05-19T19:31:55.640Z,86.20
2019-05-19T19:34:24.470Z,85.90
2019-05-19T19:36:52.602Z,86.77
2019-05-19T19:39:20.725Z,86.27
2019-05-19T19:41:48.753Z,82.37
2019-05-19T19:44:16.748Z,84.60
2019-05-19T19:46:44.846Z,84.43
2019-05-19T19:49:12.898Z,88.50
2019-05-19T19:51:40.943Z,86.43
2019-05-19T19:54:08.944Z,83.27
2019-05-19T19:56:36.949Z,82.87
2019-05-19T19:59:04.866Z,86.37
2019-05-19T20:01:32.851Z,88.20
2019-05-19T20:04:00.996Z,85.17
2019-05-19T20:06:29.000Z,88.87
2019-05-19T20:08:57.191Z,87.90
2019-05-19T20:11:25.622Z,88.13
2019-05-19T20:13:53.625Z,89.07
2019-05-19T20:16:21.707Z,84.97
2019-05-19T20:18:50.171Z,87.00
2019-05-19T20:21:18.264Z,89.00
2019-05-19T20:23:46.198Z,91.20
2019-05-19T20:26:14.162Z,90.77
2019-05-19T20:28:42.339Z,87.57
2019-05-19T20:31:10.419Z,92.07
2019-05-19T20:33:38.350Z,91.07
2019-05-19T20:36:06.372Z,94.17
2019-05-19T20:38:34.407Z,91.00
2019-05-19T20:41:02.838Z,90.23
2019-05-19T20:43:30.868Z,90.10
2019-05-19T20:45:59.272Z,92.70
2019-05-19T20:48:27.253Z,89.77
2019-05-19T20:50:55.299Z,91.13
2019-05-19T20:53:23.240Z,88.50
2019-05-19T20:55:51.157Z,93.10
2019-05-19T20:58:19.213Z,93.30
2019-05-19T21:00:50.417Z,90.53
2019-05-19T21:03:16.958Z,93.30
2019-05-19T21:05:44.983Z,93.60
2019-05-19T21:08:13.076Z,90.90
2019-05-19T21:10:41.117Z,89.63
2019-05-19T21:13:09.063Z,94.80
2019-05-19T21:15:37.038Z,94.57
2019-05-19T21:18:05.160Z,94.43
2019-05-19T21:20:33.423Z,88.90
2019-05-19T21:23:01.542Z,94.77
2019-05-19T21:25:29.519Z,89.97
2019-05-19T21:27:57.630Z,89.90
2019-05-19T21:30:25.677Z,91.83
2019-05-19T21:32:53.790Z,90.37
2019-05-19T21:35:21.925Z,92.27
2019-05-19T21:37:49.994Z,89.37
2019-05-19T21:40:18.150Z,90.73
2019-05-19T21:42:46.117Z,90.53
2019-05-19T21:45:14.502Z,90.60
2019-05-19T21:47:42.480Z,90.57
2019-05-19T21:50:10.547Z,91.30
2019-05-19T21:52:38.586Z,91.60
2019-05-19T21:55:07.711Z,93.73
2019-05-19T21:57:35.686Z,90.00
2019-05-19T22:00:03.769Z,93.53
2019-05-19T22:02:32.339Z,92.20
2019-05-19T22:05:01.680Z,91.30
2019-05-19T22:07:51.791Z,89.40
2019-05-19T22:10:19.874Z,90.70
2019-05-19T22:12:48.096Z,89.00
2019-05-19T22:15:16.229Z,95.37
2019-05-19T22:17:44.536Z,92.27
2019-05-19T22:20:12.683Z,95.67
2019-05-19T22:22:40.935Z,92.27
2019-05-19T22:25:09.036Z,90.23
2019-05-19T22:27:37.020Z,93.47
2019-05-19T22:30:09.044Z,92.97
2019-05-19T22:32:37.084Z,96.67
2019-05-19T22:35:05.481Z,93.87
2019-05-19T22:37:33.590Z,96.03
2019-05-19T22:40:01.750Z,91.90
2019-05-19T22:42:29.828Z,92.87
2019-05-19T22:44:57.847Z,94.60
2019-05-19T22:47:25.884Z,95.27
2019-05-19T22:49:53.860Z,94.27
2019-05-19T22:52:21.933Z,95.53
2019-05-19T22:54:49.908Z,91.17
2019-05-19T22:57:18.215Z,95.20
2019-05-19T22:59:46.402Z,92.93
2019-05-19T23:02:14.416Z,94.33
2019-05-19T23:04:42.485Z,94.60
2019-05-19T23:07:10.452Z,96.27
2019-05-19T23:09:38.507Z,96.23
2019-05-19T23:12:06.616Z,93.93
2019-05-19T23:14:34.674Z,90.50
2019-05-19T23:17:02.823Z,93.80
2019-05-19T23:19:30.809Z,96.87
2019-05-19T23:21:58.756Z,98.03
2019-05-19T23:24:26.751Z,98.90
2019-05-19T23:26:54.799Z,99.70
2019-05-19T23:29:22.837Z,99.20
2019-05-19T23:31:50.865Z,98.77
2019-05-19T23:34:18.840Z,95.80
2019-05-19T23:36:46.811Z,104.60
2019-05-19T23:39:14.806Z,101.77
2019-05-19T23:41:42.885Z,100.37
2019-05-19T23:44:10.947Z,97.77
2019-05-19T23:46:38.969Z,98.23
2019-05-19T23:49:06.964Z,101.27
2019-05-19T23:51:34.911Z,99.77
2019-05-19T23:54:03.025Z,98.93
2019-05-19T23:56:31.064Z,97.00
2019-05-19T23:58:59.035Z,97.67
